createdAt,value
2018-05-23T00:00:01.461Z,93.25
2018-05-23T00:02:32.800Z,94.90
2018-05-23T00:05:04.319Z,96.22
2018-05-23T00:07:35.516Z,91.30
2018-05-23T00:10:06.779Z,91.57
2018-05-23T00:12:37.853Z,95.05
2018-05-23T00:15:12.201Z,96.00
2018-05-23T00:17:43.458Z,100.43
2018-05-23T00:20:14.703Z,96.72
2018-05-23T00:22:45.926Z,97.05
2018-05-23T00:25:17.556Z,93.87
2018-05-23T00:27:48.796Z,90.90
2018-05-23T00:30:20.011Z,92.30
2018-05-23T00:32:51.374Z,93.75
2018-05-23T00:35:22.547Z,97.43
2018-05-23T00:37:53.894Z,91.15
2018-05-23T00:40:25.457Z,93.55
2018-05-23T00:42:56.888Z,95.82
2018-05-23T00:45:28.136Z,87.62
2018-05-23T00:47:59.345Z,92.05
2018-05-23T00:50:31.121Z,89.15
2018-05-23T00:53:03.025Z,89.78
2018-05-23T00:55:37.028Z,94.25
2018-05-23T00:58:09.985Z,85.78
2018-05-23T01:00:41.282Z,83.05
2018-05-23T01:03:12.385Z,92.15
2018-05-23T01:05:43.745Z,86.32
2018-05-23T01:08:14.844Z,88.93
2018-05-23T01:10:46.174Z,85.53
2018-05-23T01:13:17.325Z,81.37
2018-05-23T01:15:49.083Z,85.10
2018-05-23T01:18:20.285Z,84.65
2018-05-23T01:20:51.923Z,82.30
2018-05-23T01:23:23.229Z,83.68
2018-05-23T01:25:55.439Z,83.32
2018-05-23T01:28:26.873Z,90.50
2018-05-23T01:30:58.644Z,82.22
2018-05-23T01:33:30.120Z,84.60
2018-05-23T01:36:01.950Z,91.22
2018-05-23T01:38:33.244Z,84.90
2018-05-23T01:41:04.759Z,87.70
2018-05-23T01:43:36.023Z,92.00
2018-05-23T01:46:07.428Z,91.20
2018-05-23T01:48:47.089Z,85.28
2018-05-23T01:51:18.304Z,87.50
2018-05-23T01:53:49.547Z,81.05
2018-05-23T01:56:20.764Z,87.75
2018-05-23T01:58:52.350Z,84.72
2018-05-23T02:01:23.842Z,90.00
2018-05-23T02:03:54.988Z,89.95
2018-05-23T02:06:27.003Z,91.40
2018-05-23T02:08:59.307Z,86.25
2018-05-23T02:11:32.895Z,97.68
2018-05-23T02:14:04.276Z,101.15
2018-05-23T02:16:35.403Z,94.53
2018-05-23T02:19:06.504Z,94.22
2018-05-23T02:21:37.738Z,97.85
2018-05-23T02:24:08.867Z,91.25
2018-05-23T02:26:39.953Z,89.82
2018-05-23T02:29:11.092Z,95.57
2018-05-23T02:31:42.230Z,99.35
2018-05-23T02:34:13.297Z,93.45
2018-05-23T02:36:45.220Z,94.68
2018-05-23T02:39:16.490Z,90.85
2018-05-23T02:41:47.695Z,94.20
2018-05-23T02:44:18.870Z,87.22
2018-05-23T02:46:50.055Z,91.68
2018-05-23T02:49:21.088Z,92.55
2018-05-23T02:51:52.825Z,100.43
2018-05-23T02:54:23.992Z,98.22
2018-05-23T02:56:55.663Z,95.80
2018-05-23T02:59:26.860Z,101.38
2018-05-23T03:01:58.568Z,96.22
2018-05-23T03:04:29.781Z,101.50
2018-05-23T03:07:01.214Z,93.80
2018-05-23T03:09:32.395Z,95.38
2018-05-23T03:12:04.677Z,98.65
2018-05-23T03:14:36.090Z,98.87
2018-05-23T03:17:07.626Z,90.07
2018-05-23T03:19:38.774Z,92.55
2018-05-23T03:22:10.059Z,95.65
2018-05-23T03:24:41.201Z,94.00
2018-05-23T03:27:12.458Z,97.07
2018-05-23T03:29:43.652Z,98.82
2018-05-23T03:32:15.248Z,88.93
2018-05-23T03:34:46.412Z,84.53
2018-05-23T03:37:18.192Z,85.20
2018-05-23T03:39:49.592Z,91.57
2018-05-23T03:42:21.023Z,88.65
2018-05-23T03:44:52.346Z,90.03
2018-05-23T03:47:23.537Z,87.97
2018-05-23T03:49:54.752Z,91.03
2018-05-23T03:52:25.969Z,89.32
2018-05-23T03:54:57.184Z,90.95
2018-05-23T03:57:28.505Z,88.53
2018-05-23T04:02:08.739Z,89.60
2018-05-23T04:04:50.622Z,87.32
2018-05-23T04:07:24.565Z,133.77
2018-05-23T04:09:56.170Z,96.78
2018-05-23T04:12:27.298Z,92.20
2018-05-23T04:14:58.693Z,92.20
2018-05-23T04:17:29.985Z,86.90
2018-05-23T04:20:01.456Z,94.00
2018-05-23T04:22:32.707Z,87.80
2018-05-23T04:25:07.125Z,93.87
2018-05-23T04:27:38.328Z,92.30
2018-05-23T04:30:09.601Z,98.37
2018-05-23T04:32:40.728Z,91.43
2018-05-23T04:35:12.214Z,94.32
2018-05-23T04:37:43.529Z,97.35
2018-05-23T04:40:18.042Z,89.90
2018-05-23T04:42:49.436Z,89.13
2018-05-23T04:45:20.772Z,94.70
2018-05-23T04:47:52.323Z,102.45
2018-05-23T04:50:23.700Z,92.12
2018-05-23T04:52:56.073Z,96.70
2018-05-23T04:55:28.937Z,93.82
2018-05-23T04:58:00.147Z,91.63
2018-05-23T05:00:31.877Z,95.68
2018-05-23T05:03:04.274Z,88.82
2018-05-23T05:05:35.782Z,97.78
2018-05-23T05:08:09.355Z,97.85
2018-05-23T05:10:41.016Z,100.43
2018-05-23T05:13:13.093Z,95.78
2018-05-23T05:15:44.356Z,99.25
2018-05-23T05:18:15.527Z,96.47
2018-05-23T05:20:46.841Z,98.10
2018-05-23T05:23:18.058Z,101.50
2018-05-23T05:25:49.575Z,92.97
2018-05-23T05:28:21.401Z,103.62
2018-05-23T05:30:53.097Z,103.95
2018-05-23T05:33:24.168Z,111.47
2018-05-23T05:35:55.525Z,112.70
2018-05-23T05:38:26.933Z,110.35
2018-05-23T05:40:58.069Z,113.05
2018-05-23T05:43:29.370Z,105.18
2018-05-23T05:46:01.140Z,108.40
2018-05-23T05:48:32.380Z,104.35
2018-05-23T05:51:04.183Z,108.63
2018-05-23T05:53:35.827Z,108.18
2018-05-23T05:56:07.318Z,103.75
2018-05-23T05:58:38.660Z,101.15
2018-05-23T06:01:10.204Z,102.28
2018-05-23T06:03:41.363Z,100.15
2018-05-23T06:06:12.748Z,104.03
2018-05-23T06:08:44.018Z,106.85
2018-05-23T06:11:15.640Z,105.57
2018-05-23T06:13:46.911Z,101.90
2018-05-23T06:16:19.409Z,97.93
2018-05-23T06:18:50.638Z,105.75
2018-05-23T06:21:22.019Z,99.60
2018-05-23T06:23:53.251Z,100.53
2018-05-23T06:26:25.420Z,103.55
2018-05-23T06:28:57.553Z,102.28
2018-05-23T06:31:29.106Z,103.00
2018-05-23T06:34:00.545Z,104.03
2018-05-23T06:36:32.644Z,103.43
2018-05-23T06:39:04.412Z,110.12
2018-05-23T06:41:36.636Z,103.72
2018-05-23T06:44:07.762Z,98.70
2018-05-23T06:46:38.922Z,92.97
2018-05-23T06:49:10.419Z,100.05
2018-05-23T06:51:41.661Z,99.30
2018-05-23T06:54:12.877Z,102.40
2018-05-23T06:56:44.294Z,100.50
2018-05-23T06:59:15.484Z,92.22
2018-05-23T07:01:46.847Z,95.45
2018-05-23T07:04:18.168Z,98.70
2018-05-23T07:06:49.643Z,96.87
2018-05-23T07:09:21.300Z,101.72
2018-05-23T07:11:53.316Z,95.40
2018-05-23T07:14:24.750Z,99.60
2018-05-23T07:16:56.251Z,102.85
2018-05-23T07:19:27.711Z,108.30
2018-05-23T07:22:02.420Z,106.00
2018-05-23T07:24:33.524Z,105.03
2018-05-23T07:27:06.238Z,106.37
2018-05-23T07:29:37.834Z,103.70
2018-05-23T07:32:11.317Z,100.15
2018-05-23T07:34:42.744Z,104.00
2018-05-23T07:37:14.466Z,100.75
2018-05-23T07:39:45.818Z,101.25
2018-05-23T07:42:17.542Z,99.43
2018-05-23T07:44:48.727Z,93.75
2018-05-23T07:47:19.883Z,88.95
2018-05-23T07:49:51.155Z,96.65
2018-05-23T07:52:22.605Z,94.75
2018-05-23T07:54:55.216Z,117.57
2018-05-23T07:57:27.001Z,102.15
2018-05-23T07:59:59.757Z,98.12
2018-05-23T08:02:31.349Z,101.53
2018-05-23T08:05:02.569Z,96.28
2018-05-23T08:07:33.918Z,100.90
2018-05-23T08:10:05.503Z,95.45
2018-05-23T08:12:37.275Z,103.35
2018-05-23T08:15:09.674Z,105.60
2018-05-23T08:17:42.010Z,94.40
2018-05-23T08:20:13.183Z,91.35
2018-05-23T08:22:44.574Z,90.38
2018-05-23T08:25:18.045Z,94.43
2018-05-23T08:27:49.982Z,96.10
2018-05-23T08:30:21.397Z,99.05
2018-05-23T08:32:55.475Z,94.32
2018-05-23T08:35:30.269Z,97.22
2018-05-23T08:38:03.300Z,100.30
2018-05-23T08:40:35.838Z,98.15
2018-05-23T08:43:08.140Z,104.12
2018-05-23T08:45:39.276Z,92.75
2018-05-23T08:48:13.537Z,97.85
2018-05-23T08:50:45.338Z,90.65
2018-05-23T08:53:16.830Z,115.90
2018-05-23T08:55:48.101Z,107.57
2018-05-23T08:58:19.291Z,98.82
2018-05-23T09:00:50.650Z,97.20
2018-05-23T09:03:21.859Z,96.45
2018-05-23T09:05:52.985Z,94.97
2018-05-23T09:08:24.505Z,92.85
2018-05-23T09:10:55.758Z,101.72
2018-05-23T09:13:27.283Z,101.62
2018-05-23T09:15:58.989Z,96.87
2018-05-23T09:18:30.379Z,91.80
2018-05-23T09:21:01.719Z,92.07
2018-05-23T09:23:33.078Z,97.25
2018-05-23T09:26:04.197Z,99.82
2018-05-23T09:28:35.565Z,97.60
2018-05-23T09:31:06.630Z,98.75
2018-05-23T09:33:37.941Z,100.25
2018-05-23T09:36:09.146Z,95.78
2018-05-23T09:38:40.404Z,92.10
2018-05-23T09:41:12.762Z,102.57
2018-05-23T09:43:44.213Z,98.90
2018-05-23T09:46:15.366Z,106.18
2018-05-23T09:48:46.940Z,104.50
2018-05-23T09:51:18.306Z,100.78
2018-05-23T09:53:49.678Z,106.63
2018-05-23T09:56:20.866Z,107.68
2018-05-23T09:58:52.252Z,99.93
2018-05-23T10:01:23.526Z,110.60
2018-05-23T10:03:55.017Z,104.75
2018-05-23T10:06:26.287Z,105.80
2018-05-23T10:08:57.657Z,126.62
2018-05-23T10:11:28.944Z,113.20
2018-05-23T10:14:00.381Z,116.50
2018-05-23T10:16:31.770Z,104.53
2018-05-23T10:19:03.046Z,101.47
2018-05-23T10:21:34.317Z,102.40
2018-05-23T10:24:05.606Z,101.32
2018-05-23T10:26:36.944Z,97.93
2018-05-23T10:29:08.553Z,97.45
2018-05-23T10:31:39.833Z,103.15
2018-05-23T10:34:10.952Z,109.55
2018-05-23T10:36:42.216Z,107.43
2018-05-23T10:39:13.727Z,103.35
2018-05-23T10:41:45.182Z,113.57
2018-05-23T10:44:17.693Z,105.60
2018-05-23T10:46:49.448Z,103.12
2018-05-23T10:49:21.624Z,111.37
2018-05-23T10:51:52.829Z,100.05
2018-05-23T10:54:24.309Z,109.95
2018-05-23T10:56:55.505Z,113.20
2018-05-23T10:59:26.957Z,103.15
2018-05-23T11:01:58.201Z,108.20
2018-05-23T11:04:29.553Z,110.40
2018-05-23T11:07:00.929Z,102.15
2018-05-23T11:09:32.500Z,105.82
2018-05-23T11:12:05.012Z,100.47
2018-05-23T11:14:37.006Z,101.35
2018-05-23T11:17:08.734Z,99.95
2018-05-23T11:19:41.087Z,115.30
2018-05-23T11:22:12.856Z,107.10
2018-05-23T11:24:44.125Z,107.65
2018-05-23T11:27:15.372Z,111.20
2018-05-23T11:29:47.008Z,104.15
2018-05-23T11:32:19.389Z,100.85
2018-05-23T11:34:51.233Z,114.68
2018-05-23T11:37:24.617Z,99.30
2018-05-23T11:39:57.104Z,104.18
2018-05-23T11:42:28.553Z,108.68
2018-05-23T11:45:00.435Z,108.97
2018-05-23T11:47:32.395Z,117.22
2018-05-23T11:50:05.101Z,115.03
2018-05-23T11:52:36.864Z,114.80
2018-05-23T11:55:11.441Z,106.70
2018-05-23T11:57:43.018Z,100.82
2018-05-23T12:00:14.812Z,109.97
2018-05-23T12:02:46.872Z,124.18
2018-05-23T12:05:18.130Z,113.93
2018-05-23T12:07:49.967Z,107.80
2018-05-23T12:10:21.840Z,115.10
2018-05-23T12:12:53.461Z,103.82
2018-05-23T12:15:26.351Z,95.47
2018-05-23T12:17:59.519Z,102.03
2018-05-23T12:20:35.311Z,94.18
2018-05-23T12:23:07.376Z,99.90
2018-05-23T12:25:40.547Z,105.70
2018-05-23T12:28:12.528Z,94.18
2018-05-23T12:30:44.416Z,103.40
2018-05-23T12:33:15.993Z,91.00
2018-05-23T12:35:47.421Z,103.95
2018-05-23T12:38:19.071Z,99.62
2018-05-23T12:40:50.753Z,98.57
2018-05-23T12:43:23.528Z,105.93
2018-05-23T12:45:54.794Z,104.47
2018-05-23T12:48:26.507Z,106.40
2018-05-23T12:50:57.894Z,100.35
2018-05-23T12:53:29.527Z,101.22
2018-05-23T12:56:00.984Z,108.15
2018-05-23T12:58:32.334Z,103.55
2018-05-23T13:01:03.964Z,107.65
2018-05-23T13:03:40.569Z,101.80
2018-05-23T13:06:12.021Z,113.80
2018-05-23T13:08:43.381Z,103.40
2018-05-23T13:11:14.583Z,108.63
2018-05-23T13:13:46.400Z,104.12
2018-05-23T13:16:18.436Z,102.97
2018-05-23T13:18:50.616Z,113.35
2018-05-23T13:21:22.793Z,98.87
2018-05-23T13:23:54.147Z,96.65
2018-05-23T13:26:25.432Z,105.30
2018-05-23T13:28:57.420Z,104.55
2018-05-23T13:31:29.714Z,104.75
2018-05-23T13:34:02.569Z,102.15
2018-05-23T13:36:33.937Z,95.22
2018-05-23T13:39:05.921Z,96.68
2018-05-23T13:41:37.474Z,101.65
2018-05-23T13:44:08.905Z,97.68
2018-05-23T13:46:40.326Z,93.82
2018-05-23T13:49:11.859Z,98.82
2018-05-23T13:51:43.349Z,96.18
2018-05-23T13:54:14.810Z,102.47
2018-05-23T13:56:46.027Z,97.85
2018-05-23T13:59:17.384Z,98.05
2018-05-23T14:01:48.613Z,99.40
2018-05-23T14:04:19.765Z,99.28
2018-05-23T14:06:52.100Z,96.37
2018-05-23T14:09:23.392Z,93.25
2018-05-23T14:11:54.597Z,96.00
2018-05-23T14:14:26.000Z,96.90
2018-05-23T14:16:57.452Z,101.05
2018-05-23T14:19:28.749Z,95.35
2018-05-23T14:21:59.936Z,92.62
2018-05-23T14:24:31.697Z,100.93
2018-05-23T14:27:02.969Z,102.75
2018-05-23T14:29:34.376Z,103.15
2018-05-23T14:32:05.729Z,100.20
2018-05-23T14:34:36.970Z,92.57
2018-05-23T14:37:08.517Z,93.22
2018-05-23T14:39:39.831Z,100.47
2018-05-23T14:42:11.245Z,99.75
2018-05-23T14:44:42.754Z,95.85
2018-05-23T14:47:14.260Z,96.32
2018-05-23T14:49:45.703Z,93.40
2018-05-23T14:52:17.072Z,94.95
2018-05-23T14:54:48.356Z,88.45
2018-05-23T14:57:20.447Z,84.95
2018-05-23T14:59:53.761Z,91.03
2018-05-23T15:02:27.613Z,94.37
2018-05-23T15:05:06.970Z,92.93
2018-05-23T15:07:40.370Z,97.40
2018-05-23T15:10:15.633Z,92.30
2018-05-23T15:12:48.510Z,98.47
2018-05-23T15:15:21.960Z,96.03
2018-05-23T15:17:55.340Z,92.15
2018-05-23T15:20:31.987Z,100.40
2018-05-23T15:23:06.570Z,100.72
2018-05-23T15:25:38.926Z,100.78
2018-05-23T15:28:19.719Z,97.37
2018-05-23T15:30:53.731Z,97.78
2018-05-23T15:33:29.995Z,93.45
2018-05-23T15:36:04.623Z,94.25
2018-05-23T15:38:39.364Z,92.65
2018-05-23T15:41:13.488Z,96.82
2018-05-23T15:43:49.134Z,92.47
2018-05-23T15:46:27.333Z,96.90
2018-05-23T15:49:00.721Z,94.43
2018-05-23T15:51:34.408Z,95.40
2018-05-23T15:54:09.662Z,95.30
2018-05-23T15:56:43.122Z,95.97
2018-05-23T15:59:19.594Z,92.95
2018-05-23T16:01:53.650Z,90.78
2018-05-23T16:04:28.321Z,100.70
2018-05-23T16:07:02.781Z,87.43
2018-05-23T16:09:38.385Z,94.82
2018-05-23T16:12:13.391Z,94.87
2018-05-23T16:14:48.916Z,92.18
2018-05-23T16:17:22.564Z,103.35
2018-05-23T16:20:04.830Z,98.00
2018-05-23T16:22:48.894Z,94.10
2018-05-23T16:25:21.592Z,96.93
2018-05-23T16:27:58.458Z,95.55
2018-05-23T16:30:33.668Z,94.30
2018-05-23T16:33:07.179Z,88.03
2018-05-23T16:35:41.174Z,89.25
2018-05-23T16:38:15.078Z,91.65
2018-05-23T16:40:49.841Z,88.78
2018-05-23T16:43:22.536Z,91.60
2018-05-23T16:45:56.333Z,91.60
2018-05-23T16:48:29.550Z,95.38
2018-05-23T16:51:03.022Z,92.00
2018-05-23T16:53:35.346Z,97.15
2018-05-23T16:56:09.732Z,93.15
2018-05-23T16:58:42.141Z,92.18
2018-05-23T17:01:14.851Z,92.78
2018-05-23T17:03:47.537Z,88.32
2018-05-23T17:06:19.691Z,91.95
2018-05-23T17:08:52.618Z,94.70
2018-05-23T17:11:24.772Z,89.43
2018-05-23T17:14:00.783Z,92.35
2018-05-23T17:16:37.213Z,85.57
2018-05-23T17:19:12.031Z,89.53
2018-05-23T17:21:44.840Z,88.50
2018-05-23T17:24:17.343Z,84.60
2018-05-23T17:26:49.726Z,90.72
2018-05-23T17:29:22.905Z,86.37
2018-05-23T17:31:54.940Z,91.75
2018-05-23T17:34:29.422Z,93.30
2018-05-23T17:37:01.951Z,94.05
2018-05-23T17:39:34.906Z,88.25
2018-05-23T17:42:09.849Z,96.10
2018-05-23T17:44:46.342Z,86.70
2018-05-23T17:47:19.289Z,91.85
2018-05-23T17:49:52.865Z,85.15
2018-05-23T17:52:25.799Z,93.47
2018-05-23T17:54:58.535Z,86.90
2018-05-23T17:57:32.135Z,89.32
2018-05-23T18:00:05.657Z,90.30
2018-05-23T18:02:39.186Z,92.78
2018-05-23T18:05:14.431Z,97.88
2018-05-23T18:07:47.325Z,91.35
2018-05-23T18:10:21.110Z,91.65
2018-05-23T18:12:53.981Z,99.28
2018-05-23T18:15:29.719Z,101.85
2018-05-23T18:18:05.621Z,99.30
2018-05-23T18:20:41.935Z,100.53
2018-05-23T18:23:13.767Z,91.85
2018-05-23T18:25:51.817Z,97.22
2018-05-23T18:28:24.846Z,91.32
2018-05-23T18:30:57.205Z,90.30
2018-05-23T18:33:31.611Z,100.22
2018-05-23T18:36:04.553Z,96.00
2018-05-23T18:38:36.563Z,98.93
2018-05-23T18:41:09.403Z,96.30
2018-05-23T18:43:41.987Z,103.40
2018-05-23T18:46:16.329Z,105.40
2018-05-23T18:48:52.406Z,104.22
2018-05-23T18:51:27.111Z,103.28
2018-05-23T18:54:01.534Z,99.35
2018-05-23T18:56:34.707Z,102.47
2018-05-23T18:59:09.016Z,98.40
2018-05-23T19:01:42.030Z,96.45
2018-05-23T19:04:15.350Z,95.25
2018-05-23T19:06:47.983Z,97.18
2018-05-23T19:09:23.210Z,94.43
2018-05-23T19:11:56.821Z,91.82
2018-05-23T19:14:28.989Z,94.97
2018-05-23T19:17:03.462Z,95.62
2018-05-23T19:19:36.981Z,120.22
2018-05-23T19:22:11.006Z,158.23
2018-05-23T19:24:45.520Z,125.07
2018-05-23T19:27:20.519Z,109.53
2018-05-23T19:29:56.039Z,99.85
2018-05-23T19:32:29.436Z,107.68
2018-05-23T19:35:06.489Z,110.47
2018-05-23T19:37:39.797Z,106.28
2018-05-23T19:40:12.972Z,100.35
2018-05-23T19:42:47.667Z,106.22
2018-05-23T19:45:22.406Z,104.40
2018-05-23T19:47:56.313Z,102.43
2018-05-23T19:50:33.894Z,96.68
2018-05-23T19:53:11.226Z,93.65
2018-05-23T19:55:45.934Z,91.95
2018-05-23T19:58:19.901Z,94.78
2018-05-23T20:00:57.635Z,95.93
2018-05-23T20:03:32.869Z,128.98
2018-05-23T20:06:07.491Z,102.07
2018-05-23T20:08:42.371Z,103.72
2018-05-23T20:11:14.468Z,97.62
2018-05-23T20:13:48.223Z,107.35
2018-05-23T20:16:28.141Z,108.25
2018-05-23T20:19:03.097Z,106.50
2018-05-23T20:21:36.952Z,103.95
2018-05-23T20:24:10.252Z,96.30
2018-05-23T20:26:43.743Z,100.45
2018-05-23T20:29:20.970Z,103.43
2018-05-23T20:31:55.520Z,100.20
2018-05-23T20:34:28.428Z,102.00
2018-05-23T20:37:01.654Z,105.03
2018-05-23T20:39:35.494Z,101.43
2018-05-23T20:42:08.228Z,98.95
2018-05-23T20:44:45.684Z,94.07
2018-05-23T20:47:19.543Z,100.45
2018-05-23T20:49:54.118Z,96.10
2018-05-23T20:52:27.446Z,97.65
2018-05-23T20:54:59.186Z,96.15
2018-05-23T20:57:30.367Z,99.07
2018-05-23T21:00:01.565Z,97.15
2018-05-23T21:02:33.033Z,100.32
2018-05-23T21:05:04.513Z,98.68
2018-05-23T21:07:35.812Z,101.45
2018-05-23T21:10:07.106Z,103.12
2018-05-23T21:12:38.310Z,113.85
2018-05-23T21:15:09.354Z,104.53
2018-05-23T21:17:40.800Z,103.45
2018-05-23T21:20:12.053Z,98.40
2018-05-23T21:22:45.330Z,102.35
2018-05-23T21:25:16.693Z,98.85
2018-05-23T21:27:49.639Z,95.53
2018-05-23T21:30:20.887Z,99.60
2018-05-23T21:32:52.030Z,97.55
2018-05-23T21:35:24.261Z,102.43
2018-05-23T21:37:55.558Z,102.18
2018-05-23T21:40:27.362Z,110.75
2018-05-23T21:42:58.552Z,125.28
2018-05-23T21:45:29.931Z,102.55
2018-05-23T21:48:01.218Z,109.60
2018-05-23T21:50:32.392Z,111.95
2018-05-23T21:53:03.740Z,106.80
2018-05-23T21:55:34.921Z,102.28
2018-05-23T21:58:06.324Z,113.35
2018-05-23T22:00:37.449Z,115.30
2018-05-23T22:03:09.506Z,115.72
2018-05-23T22:05:41.013Z,106.65
2018-05-23T22:08:12.122Z,113.55
2018-05-23T22:10:43.528Z,113.62
2018-05-23T22:13:14.650Z,111.35
2018-05-23T22:15:46.239Z,122.85
2018-05-23T22:18:17.504Z,120.70
2018-05-23T22:20:48.736Z,114.37
2018-05-23T22:23:20.007Z,109.93
2018-05-23T22:25:51.421Z,117.28
2018-05-23T22:28:22.724Z,112.50
2018-05-23T22:30:54.114Z,106.95
2018-05-23T22:33:25.444Z,115.00
2018-05-23T22:35:57.058Z,110.30
2018-05-23T22:38:28.321Z,107.60
2018-05-23T22:40:59.672Z,107.60
2018-05-23T22:43:31.529Z,103.20
2018-05-23T22:46:02.933Z,104.55
2018-05-23T22:48:34.286Z,102.68
2018-05-23T22:51:05.688Z,114.35
2018-05-23T22:53:36.945Z,108.85
2018-05-23T22:56:08.195Z,110.45
2018-05-23T22:58:39.534Z,114.95
2018-05-23T23:01:10.669Z,107.78
2018-05-23T23:03:42.064Z,103.55
2018-05-23T23:06:13.478Z,101.45
2018-05-23T23:08:44.724Z,107.53
2018-05-23T23:11:15.960Z,99.00
2018-05-23T23:13:48.333Z,102.10
2018-05-23T23:16:19.576Z,99.62
2018-05-23T23:18:50.836Z,99.30
2018-05-23T23:21:22.104Z,104.78
2018-05-23T23:23:53.397Z,108.32
2018-05-23T23:26:25.889Z,103.57
2018-05-23T23:28:57.155Z,103.87
2018-05-23T23:31:28.275Z,106.78
2018-05-23T23:33:59.549Z,106.18
2018-05-23T23:36:31.880Z,112.07
2018-05-23T23:39:03.652Z,110.85
2018-05-23T23:41:35.054Z,100.18
2018-05-23T23:44:06.145Z,101.38
2018-05-23T23:46:37.409Z,106.18
2018-05-23T23:49:08.832Z,105.63
2018-05-23T23:51:39.992Z,101.50
2018-05-23T23:54:11.116Z,98.03
2018-05-23T23:56:42.629Z,104.55
2018-05-23T23:59:13.804Z,100.45
